createdAt,value
2022-09-03T00:01:02.976Z,101243.81
2022-09-03T00:04:02.562Z,101255.75
2022-09-03T00:06:36.881Z,101246.66
2022-09-03T00:09:30.845Z,101251.38
2022-09-03T00:12:21.860Z,101239.28
2022-09-03T00:15:10.986Z,101251.81
2022-09-03T00:18:04.303Z,101237.34
2022-09-03T00:20:39.627Z,101250.41
2022-09-03T00:23:10.342Z,101255.47
2022-09-03T00:26:17.510Z,101261.44
2022-09-03T00:29:06.897Z,101242.34
2022-09-03T00:31:40.560Z,101259.41
2022-09-03T00:34:16.862Z,101250.06
2022-09-03T00:36:45.493Z,101249.47
2022-09-03T00:39:17.818Z,101254.63
2022-09-03T00:42:19.807Z,101248.03
2022-09-03T00:45:05.014Z,101249.94
2022-09-03T00:47:40.306Z,101245.63
2022-09-03T00:50:15.238Z,101251.78
2022-09-03T00:53:26.400Z,101248.25
2022-09-03T00:55:55.548Z,101255.22
2022-09-03T00:58:40.341Z,101257.72
2022-09-03T01:01:15.065Z,101240.41
2022-09-03T01:03:53.687Z,101252.19
2022-09-03T01:06:38.532Z,101255.69
2022-09-03T01:09:18.485Z,101254.09
2022-09-03T01:12:05.421Z,101240.97
2022-09-03T01:14:31.716Z,101252.25
2022-09-03T01:17:27.749Z,101242.00
2022-09-03T01:19:53.980Z,101250.44
2022-09-03T01:22:23.053Z,101252.66
2022-09-03T01:25:08.136Z,101240.09
2022-09-03T01:27:46.780Z,101244.50
2022-09-03T01:30:17.479Z,101243.88
2022-09-03T01:32:56.688Z,101240.06
2022-09-03T01:35:34.613Z,101262.22
2022-09-03T01:38:06.784Z,101235.50
2022-09-03T01:40:39.105Z,101255.50
2022-09-03T01:43:34.072Z,101257.72
2022-09-03T01:46:09.666Z,101257.13
2022-09-03T01:49:02.313Z,101253.31
2022-09-03T01:51:30.253Z,101254.53
2022-09-03T01:54:24.022Z,101255.00
2022-09-03T01:56:56.410Z,101257.63
2022-09-03T01:59:45.606Z,101254.75
2022-09-03T02:02:19.860Z,101253.16
2022-09-03T02:05:05.903Z,101252.88
2022-09-03T02:07:35.625Z,101249.06
2022-09-03T02:10:05.406Z,101267.66
2022-09-03T02:12:33.794Z,101261.00
2022-09-03T02:15:03.679Z,101257.56
2022-09-03T02:17:32.368Z,101249.34
2022-09-03T02:20:01.893Z,101262.91
2022-09-03T02:22:28.233Z,101252.41
2022-09-03T02:24:54.836Z,101252.19
2022-09-03T02:27:21.244Z,101259.72
2022-09-03T02:29:47.595Z,101236.94
2022-09-03T02:32:13.973Z,101230.19
2022-09-03T02:34:42.062Z,101237.13
2022-09-03T02:37:16.787Z,101253.44
2022-09-03T02:39:43.185Z,101240.41
2022-09-03T02:42:11.409Z,101261.84
2022-09-03T02:44:53.375Z,101258.84
2022-09-03T02:47:20.029Z,101255.25
2022-09-03T02:49:49.161Z,101253.47
2022-09-03T02:52:15.778Z,101256.13
2022-09-03T02:54:42.481Z,101243.00
2022-09-03T02:57:10.532Z,101244.44
2022-09-03T02:59:36.979Z,101234.97
2022-09-03T03:02:04.201Z,101238.25
2022-09-03T03:04:32.318Z,101245.94
2022-09-03T03:06:58.755Z,101250.81
2022-09-03T03:09:25.270Z,101246.41
2022-09-03T03:11:52.719Z,101244.03
2022-09-03T03:14:19.072Z,101249.09
2022-09-03T03:16:45.527Z,101232.75
2022-09-03T03:19:11.982Z,101242.50
2022-09-03T03:21:38.402Z,101241.50
2022-09-03T03:24:04.933Z,101240.06
2022-09-03T03:26:31.339Z,101240.91
2022-09-03T03:28:59.552Z,101226.00
2022-09-03T03:31:26.936Z,101242.19
2022-09-03T03:33:55.548Z,101235.56
2022-09-03T03:36:23.381Z,101232.78
2022-09-03T03:38:49.737Z,101229.38
2022-09-03T03:41:19.130Z,101241.72
2022-09-03T03:43:45.841Z,101240.91
2022-09-03T03:46:12.419Z,101230.22
2022-09-03T03:48:38.974Z,101231.84
2022-09-03T03:51:08.418Z,101230.63
2022-09-03T03:53:36.092Z,101240.34
2022-09-03T03:56:05.878Z,101243.16
2022-09-03T03:58:33.564Z,101240.75
2022-09-03T04:01:17.919Z,101239.13
2022-09-03T04:03:45.279Z,101237.50
2022-09-03T04:06:13.863Z,101246.59
2022-09-03T04:08:42.973Z,101239.94
2022-09-03T04:11:13.011Z,101249.81
2022-09-03T04:13:42.414Z,101245.59
2022-09-03T04:16:11.566Z,101251.22
2022-09-03T04:18:39.343Z,101252.44
2022-09-03T04:21:08.842Z,101228.41
2022-09-03T04:23:37.902Z,101248.59
2022-09-03T04:26:05.549Z,101228.00
2022-09-03T04:28:32.839Z,101238.69
2022-09-03T04:31:07.924Z,101233.63
2022-09-03T04:33:36.224Z,101232.00
2022-09-03T04:36:14.676Z,101220.84
2022-09-03T04:38:43.487Z,101230.91
2022-09-03T04:41:12.493Z,101228.28
2022-09-03T04:43:39.027Z,101234.50
2022-09-03T04:46:09.086Z,101229.25
2022-09-03T04:48:47.205Z,101232.47
2022-09-03T04:51:15.797Z,101232.44
2022-09-03T04:53:45.032Z,101235.84
2022-09-03T04:56:12.897Z,101242.47
2022-09-03T04:58:39.273Z,101233.53
2022-09-03T05:01:17.095Z,101227.84
2022-09-03T05:03:44.384Z,101216.28
2022-09-03T05:06:10.779Z,101237.09
2022-09-03T05:08:37.115Z,101236.63
2022-09-03T05:11:05.033Z,101245.09
2022-09-03T05:13:32.261Z,101238.22
2022-09-03T05:16:00.417Z,101247.84
2022-09-03T05:18:26.983Z,101228.88
2022-09-03T05:21:01.372Z,101224.25
2022-09-03T05:23:29.209Z,101243.84
2022-09-03T05:26:00.397Z,101234.44
2022-09-03T05:28:28.191Z,101244.59
2022-09-03T05:31:07.401Z,101228.44
2022-09-03T05:33:34.418Z,101245.56
2022-09-03T05:36:05.237Z,101242.75
2022-09-03T05:38:32.229Z,101246.19
2022-09-03T05:41:00.117Z,101235.03
2022-09-03T05:43:28.589Z,101232.22
2022-09-03T05:45:58.954Z,101231.66
2022-09-03T05:48:27.527Z,101217.75
2022-09-03T05:51:06.018Z,101236.69
2022-09-03T05:53:35.512Z,101223.56
2022-09-03T05:56:04.512Z,101232.66
2022-09-03T05:58:35.090Z,101216.38
2022-09-03T06:01:13.823Z,101243.63
2022-09-03T06:03:41.278Z,101237.16
2022-09-03T06:06:08.667Z,101240.84
2022-09-03T06:08:36.115Z,101244.66
2022-09-03T06:11:02.645Z,101236.84
2022-09-03T06:13:28.978Z,101240.59
2022-09-03T06:16:00.285Z,101238.88
2022-09-03T06:18:27.919Z,101233.03
2022-09-03T06:20:58.583Z,101237.25
2022-09-03T06:23:25.913Z,101237.28
2022-09-03T06:26:05.705Z,101241.81
2022-09-03T06:28:36.664Z,101246.78
2022-09-03T06:31:05.161Z,101237.94
2022-09-03T06:33:34.372Z,101240.09
2022-09-03T06:36:03.870Z,101226.81
2022-09-03T06:38:35.476Z,101235.72
2022-09-03T06:41:07.428Z,101231.66
2022-09-03T06:43:36.191Z,101236.81
2022-09-03T06:46:05.320Z,101236.16
2022-09-03T06:48:33.344Z,101234.31
2022-09-03T06:51:08.099Z,101233.31
2022-09-03T06:53:39.445Z,101228.00
2022-09-03T06:56:10.564Z,101231.13
2022-09-03T06:58:46.025Z,101231.13
2022-09-03T07:01:20.506Z,101236.63
2022-09-03T07:03:48.936Z,101241.09
2022-09-03T07:06:17.901Z,101232.72
2022-09-03T07:08:46.452Z,101242.44
2022-09-03T07:11:18.435Z,101236.44
2022-09-03T07:13:50.518Z,101236.94
2022-09-03T07:16:18.291Z,101245.53
2022-09-03T07:18:45.513Z,101249.16
2022-09-03T07:21:17.061Z,101240.47
2022-09-03T07:23:43.772Z,101247.66
2022-09-03T07:26:13.221Z,101247.81
2022-09-03T07:28:41.664Z,101233.09
2022-09-03T07:31:11.312Z,101236.03
2022-09-03T07:33:41.875Z,101234.16
2022-09-03T07:36:14.716Z,101238.38
2022-09-03T07:38:42.985Z,101233.94
2022-09-03T07:41:10.571Z,101243.78
2022-09-03T07:43:42.513Z,101241.28
2022-09-03T07:46:10.707Z,101230.16
2022-09-03T07:48:37.662Z,101241.31
2022-09-03T07:51:04.200Z,101227.38
2022-09-03T07:53:30.564Z,101241.91
2022-09-03T07:56:05.281Z,101234.53
2022-09-03T07:58:33.292Z,101244.56
2022-09-03T08:01:04.982Z,101244.28
2022-09-03T08:03:31.759Z,101244.13
2022-09-03T08:06:02.976Z,101229.81
2022-09-03T08:08:31.281Z,101244.97
2022-09-03T08:11:11.830Z,101236.22
2022-09-03T08:13:39.703Z,101241.91
2022-09-03T08:16:07.156Z,101240.16
2022-09-03T08:18:37.477Z,101238.78
2022-09-03T08:21:11.636Z,101245.56
2022-09-03T08:23:40.020Z,101241.47
2022-09-03T08:26:06.837Z,101237.53
2022-09-03T08:28:33.860Z,101234.94
2022-09-03T08:31:07.457Z,101234.16
2022-09-03T08:33:33.882Z,101222.97
2022-09-03T08:36:00.249Z,101236.69
2022-09-03T08:38:26.703Z,101235.59
2022-09-03T08:40:53.158Z,101229.81
2022-09-03T08:43:19.546Z,101235.38
2022-09-03T08:45:46.015Z,101240.75
2022-09-03T08:48:25.107Z,101240.44
2022-09-03T08:50:56.540Z,101251.63
2022-09-03T08:53:31.830Z,101239.72
2022-09-03T08:56:37.085Z,101246.84
2022-09-03T08:59:03.479Z,101250.66
2022-09-03T09:01:32.943Z,101242.88
2022-09-03T09:04:36.623Z,101237.88
2022-09-03T09:07:12.222Z,101244.03
2022-09-03T09:09:55.089Z,101242.31
2022-09-03T09:12:46.956Z,101233.22
2022-09-03T09:15:24.402Z,101237.06
2022-09-03T09:18:01.074Z,101246.03
2022-09-03T09:21:02.232Z,101230.16
2022-09-03T09:23:40.114Z,101231.09
2022-09-03T09:26:12.264Z,101229.59
2022-09-03T09:28:39.226Z,101226.13
2022-09-03T09:31:12.027Z,101230.25
2022-09-03T09:33:38.792Z,101222.41
2022-09-03T09:36:09.407Z,101216.91
2022-09-03T09:38:38.069Z,101223.66
2022-09-03T09:41:19.102Z,101230.63
2022-09-03T09:43:46.711Z,101216.00
2022-09-03T09:46:23.156Z,101234.41
2022-09-03T09:48:52.463Z,101213.13
2022-09-03T09:51:30.500Z,101214.22
2022-09-03T09:54:17.856Z,101231.03
2022-09-03T09:56:45.035Z,101228.34
2022-09-03T09:59:15.057Z,101229.88
2022-09-03T10:01:43.991Z,101227.94
2022-09-03T10:04:23.872Z,101209.19
2022-09-03T10:07:20.615Z,101217.19
2022-09-03T10:09:58.885Z,101226.78
2022-09-03T10:12:45.269Z,101213.44
2022-09-03T10:15:37.693Z,101216.25
2022-09-03T10:18:33.039Z,101216.13
2022-09-03T10:21:11.776Z,101217.56
2022-09-03T10:24:07.418Z,101201.56
2022-09-03T10:26:36.476Z,101211.78
2022-09-03T10:29:05.177Z,101205.94
2022-09-03T10:31:42.981Z,101216.38
2022-09-03T10:34:24.656Z,101199.38
2022-09-03T10:37:09.857Z,101201.63
2022-09-03T10:40:03.996Z,101199.09
2022-09-03T10:43:00.060Z,101199.06
2022-09-03T10:45:48.189Z,101198.00
2022-09-03T10:49:05.457Z,101190.84
2022-09-03T10:51:39.291Z,101185.06
2022-09-03T10:54:24.072Z,101186.25
2022-09-03T10:57:18.305Z,101185.19
2022-09-03T11:00:04.880Z,101184.72
2022-09-03T11:02:57.263Z,101178.81
2022-09-03T11:05:35.180Z,101192.28
2022-09-03T11:08:18.772Z,101199.59
2022-09-03T11:10:48.125Z,101180.75
2022-09-03T11:13:22.069Z,101180.16
2022-09-03T11:15:53.572Z,101195.06
2022-09-03T11:18:28.466Z,101190.94
2022-09-03T11:21:00.895Z,101180.66
2022-09-03T11:23:31.185Z,101161.00
2022-09-03T11:26:02.219Z,101184.19
2022-09-03T11:28:56.691Z,101187.72
2022-09-03T11:31:41.048Z,101180.72
2022-09-03T11:34:13.231Z,101178.69
2022-09-03T11:36:47.902Z,101167.59
2022-09-03T11:39:36.564Z,101173.91
2022-09-03T11:42:09.471Z,101179.47
2022-09-03T11:44:44.730Z,101160.63
2022-09-03T11:47:36.880Z,101157.09
2022-09-03T11:50:21.188Z,101157.91
2022-09-03T11:52:50.332Z,101167.56
2022-09-03T11:55:47.805Z,101157.59
2022-09-03T11:58:36.489Z,101158.06
2022-09-03T12:01:09.413Z,101156.00
2022-09-03T12:03:51.781Z,101156.97
2022-09-03T12:06:42.535Z,101139.34
2022-09-03T12:09:38.536Z,101148.38
2022-09-03T12:12:31.127Z,101161.88
2022-09-03T12:15:03.544Z,101152.84
2022-09-03T12:17:54.153Z,101149.34
2022-09-03T12:20:20.511Z,101142.66
2022-09-03T12:22:46.919Z,101146.34
2022-09-03T12:25:15.232Z,101147.91
2022-09-03T12:27:44.950Z,101152.53
2022-09-03T12:30:18.098Z,101133.81
2022-09-03T12:32:44.492Z,101138.25
2022-09-03T12:38:05.156Z,101151.25
2022-09-03T12:40:33.793Z,101145.53
2022-09-03T12:46:17.221Z,101139.84
2022-09-03T12:51:54.417Z,101135.53
2022-09-03T12:54:22.789Z,101133.50
2022-09-03T12:56:58.371Z,101131.25
2022-09-03T12:59:27.664Z,101129.31
2022-09-03T13:02:01.669Z,101126.97
2022-09-03T13:04:33.834Z,101125.56
2022-09-03T13:07:02.124Z,101132.69
2022-09-03T13:09:33.421Z,101121.44
2022-09-03T13:11:59.768Z,101126.81
2022-09-03T13:14:27.103Z,101127.25
2022-09-03T13:17:10.104Z,101129.19
2022-09-03T13:19:58.912Z,101132.84
2022-09-03T13:22:49.861Z,101119.06
2022-09-03T13:25:30.150Z,101118.06
2022-09-03T13:28:33.848Z,101121.59
2022-09-03T13:31:31.338Z,101130.47
2022-09-03T13:34:05.002Z,101129.66
2022-09-03T13:36:42.419Z,101123.03
2022-09-03T13:39:33.293Z,101131.28
2022-09-03T13:42:32.431Z,101124.91
2022-09-03T13:45:13.872Z,101116.97
2022-09-03T13:47:45.730Z,101131.53
2022-09-03T13:50:21.636Z,101128.88
2022-09-03T13:53:09.187Z,101121.25
2022-09-03T13:55:44.560Z,101123.66
2022-09-03T13:58:29.450Z,101111.75
2022-09-03T14:00:58.572Z,101124.13
2022-09-03T14:03:36.235Z,101123.19
2022-09-03T14:06:07.429Z,101121.13
2022-09-03T14:08:56.721Z,101119.84
2022-09-03T14:12:04.075Z,101119.38
2022-09-03T14:14:51.983Z,101126.16
2022-09-03T14:17:41.606Z,101129.06
2022-09-03T14:20:23.286Z,101114.59
2022-09-03T14:23:00.130Z,101132.22
2022-09-03T14:25:27.510Z,101121.44
2022-09-03T14:28:12.351Z,101121.56
2022-09-03T14:30:49.947Z,101115.38
2022-09-03T14:33:24.847Z,101118.88
2022-09-03T14:36:21.774Z,101124.13
2022-09-03T14:38:57.849Z,101127.75
2022-09-03T14:41:43.614Z,101126.03
2022-09-03T14:44:37.741Z,101113.66
2022-09-03T14:47:37.565Z,101124.75
2022-09-03T14:50:16.711Z,101123.50
2022-09-03T14:53:06.845Z,101127.50
2022-09-03T14:56:15.234Z,101123.78
2022-09-03T14:58:59.841Z,101131.38
2022-09-03T15:01:39.051Z,101107.47
2022-09-03T15:04:29.130Z,101114.44
2022-09-03T15:07:26.385Z,101114.63
2022-09-03T15:10:24.987Z,101121.63
2022-09-03T15:12:54.546Z,101113.97
2022-09-03T15:15:29.272Z,101132.06
2022-09-03T15:18:27.832Z,101116.19
2022-09-03T15:21:00.747Z,101117.63
2022-09-03T15:24:00.663Z,101125.38
2022-09-03T15:26:29.749Z,101122.38
2022-09-03T15:29:31.218Z,101128.56
2022-09-03T15:31:57.509Z,101126.78
2022-09-03T15:34:38.635Z,101124.75
2022-09-03T15:37:14.356Z,101115.41
2022-09-03T15:39:44.473Z,101127.91
2022-09-03T15:42:22.372Z,101132.66
2022-09-03T15:44:52.750Z,101123.63
2022-09-03T15:47:50.823Z,101126.47
2022-09-03T15:50:37.289Z,101133.75
2022-09-03T15:53:15.805Z,101127.88
2022-09-03T15:55:44.929Z,101124.66
2022-09-03T15:58:33.983Z,101133.47
2022-09-03T16:01:06.258Z,101114.88
2022-09-03T16:03:47.269Z,101123.44
2022-09-03T16:06:20.501Z,101135.47
2022-09-03T16:08:55.477Z,101132.41
2022-09-03T16:12:06.153Z,101134.97
2022-09-03T16:14:43.082Z,101128.16
2022-09-03T16:17:33.853Z,101138.06
2022-09-03T16:20:09.776Z,101124.78
2022-09-03T16:22:51.288Z,101145.31
2022-09-03T16:25:26.396Z,101132.59
2022-09-03T16:28:15.927Z,101133.81
2022-09-03T16:30:59.403Z,101138.16
2022-09-03T16:33:50.883Z,101135.88
2022-09-03T16:36:44.585Z,101128.75
2022-09-03T16:39:45.119Z,101136.31
2022-09-03T16:42:29.738Z,101137.50
2022-09-03T16:45:20.892Z,101132.84
2022-09-03T16:48:06.693Z,101139.50
2022-09-03T16:50:45.811Z,101132.59
2022-09-03T16:53:31.578Z,101134.78
2022-09-03T16:56:05.378Z,101130.97
2022-09-03T16:59:02.177Z,101128.38
2022-09-03T17:02:23.678Z,101138.03
2022-09-03T17:05:26.571Z,101148.03
2022-09-03T17:08:22.168Z,101141.97
2022-09-03T17:11:04.377Z,101143.06
2022-09-03T17:14:03.565Z,101135.91
2022-09-03T17:16:51.831Z,101147.22
2022-09-03T17:19:46.028Z,101132.41
2022-09-03T17:22:49.818Z,101141.66
2022-09-03T17:25:36.275Z,101145.88
2022-09-03T17:28:25.322Z,101152.78
2022-09-03T17:31:10.384Z,101147.34
2022-09-03T17:33:52.430Z,101152.59
2022-09-03T17:36:23.475Z,101150.34
2022-09-03T17:39:06.968Z,101154.25
2022-09-03T17:41:42.504Z,101156.28
2022-09-03T17:47:20.374Z,101162.72
2022-09-03T17:49:52.404Z,101157.84
2022-09-03T17:52:47.746Z,101160.97
2022-09-03T17:55:29.271Z,101157.47
2022-09-03T17:58:13.938Z,101167.69
2022-09-03T18:01:05.237Z,101166.41
2022-09-03T18:03:45.522Z,101175.28
2022-09-03T18:06:27.881Z,101167.19
2022-09-03T18:08:58.965Z,101180.84
2022-09-03T18:11:38.153Z,101179.38
2022-09-03T18:14:30.672Z,101179.97
2022-09-03T18:17:08.044Z,101192.31
2022-09-03T18:19:39.299Z,101183.06
2022-09-03T18:22:06.259Z,101192.97
2022-09-03T18:24:41.162Z,101196.47
2022-09-03T18:27:14.706Z,101201.91
2022-09-03T18:29:54.081Z,101210.50
2022-09-03T18:32:20.993Z,101204.94
2022-09-03T18:34:47.400Z,101199.59
2022-09-03T18:37:18.637Z,101219.34
2022-09-03T18:39:45.940Z,101215.34
2022-09-03T18:42:34.993Z,101221.47
2022-09-03T18:45:21.521Z,101215.59
2022-09-03T18:48:10.031Z,101217.41
2022-09-03T18:51:07.950Z,101222.97
2022-09-03T18:53:40.266Z,101235.69
2022-09-03T18:56:19.533Z,101232.22
2022-09-03T18:58:59.533Z,101234.03
2022-09-03T19:01:34.418Z,101229.72
2022-09-03T19:04:19.586Z,101240.91
2022-09-03T19:07:01.912Z,101227.81
2022-09-03T19:09:41.448Z,101235.22
2022-09-03T19:12:40.671Z,101244.44
2022-09-03T19:15:21.369Z,101245.19
2022-09-03T19:17:47.659Z,101252.34
2022-09-03T19:20:24.578Z,101261.34
2022-09-03T19:22:50.905Z,101254.34
2022-09-03T19:25:17.590Z,101258.56
2022-09-03T19:28:08.006Z,101262.78
2022-09-03T19:30:53.160Z,101265.09
2022-09-03T19:33:41.469Z,101266.84
2022-09-03T19:36:22.160Z,101268.06
2022-09-03T19:39:23.276Z,101259.94
2022-09-03T19:42:12.637Z,101261.38
2022-09-03T19:44:38.920Z,101268.22
2022-09-03T19:47:08.151Z,101270.56
2022-09-03T19:50:02.962Z,101253.75
2022-09-03T19:52:52.678Z,101256.59
2022-09-03T19:55:24.759Z,101258.38
2022-09-03T19:58:00.591Z,101268.44
2022-09-03T20:00:32.580Z,101268.13
2022-09-03T20:03:01.476Z,101275.59
2022-09-03T20:05:27.915Z,101282.44
2022-09-03T20:07:55.941Z,101277.50
2022-09-03T20:10:24.634Z,101281.19
2022-09-03T20:13:05.930Z,101291.75
2022-09-03T20:15:38.762Z,101296.19
2022-09-03T20:18:34.553Z,101295.53
2022-09-03T20:21:19.512Z,101294.50
2022-09-03T20:23:48.538Z,101301.81
2022-09-03T20:26:17.571Z,101302.22
2022-09-03T20:29:15.169Z,101300.56
2022-09-03T20:32:19.628Z,101300.38
2022-09-03T20:34:57.726Z,101300.91
2022-09-03T20:38:04.724Z,101315.78
2022-09-03T20:40:49.858Z,101307.75
2022-09-03T20:43:30.417Z,101312.69
2022-09-03T20:46:15.501Z,101312.28
2022-09-03T20:49:07.393Z,101321.91
2022-09-03T20:51:46.661Z,101322.06
2022-09-03T20:54:18.197Z,101314.19
2022-09-03T20:57:20.915Z,101329.88
2022-09-03T21:00:01.351Z,101307.34
2022-09-03T21:02:48.280Z,101328.84
2022-09-03T21:05:32.320Z,101340.69
2022-09-03T21:08:06.448Z,101334.47
2022-09-03T21:10:51.787Z,101333.81
2022-09-03T21:13:45.269Z,101330.34
2022-09-03T21:16:14.757Z,101339.97
2022-09-03T21:19:02.841Z,101338.91
2022-09-03T21:21:47.172Z,101344.75
2022-09-03T21:24:16.040Z,101330.03
2022-09-03T21:26:47.802Z,101351.84
2022-09-03T21:29:20.963Z,101346.53
2022-09-03T21:32:12.291Z,101342.22
2022-09-03T21:34:44.689Z,101354.41
2022-09-03T21:37:12.991Z,101354.28
2022-09-03T21:39:46.032Z,101353.03
2022-09-03T21:42:22.644Z,101349.03
2022-09-03T21:45:00.129Z,101349.28
2022-09-03T21:47:29.660Z,101347.31
2022-09-03T21:50:16.375Z,101353.31
2022-09-03T21:53:03.428Z,101351.31
2022-09-03T21:55:46.534Z,101355.72
2022-09-03T21:58:31.636Z,101350.00
2022-09-03T22:01:07.160Z,101364.16
2022-09-03T22:03:33.656Z,101356.44
2022-09-03T22:06:14.014Z,101360.72
2022-09-03T22:08:54.549Z,101358.47
2022-09-03T22:11:29.701Z,101357.16
2022-09-03T22:14:09.358Z,101367.16
2022-09-03T22:16:48.451Z,101369.19
2022-09-03T22:19:17.547Z,101357.06
2022-09-03T22:22:01.870Z,101369.09
2022-09-03T22:24:36.099Z,101362.75
2022-09-03T22:27:26.146Z,101370.78
2022-09-03T22:30:02.221Z,101367.66
2022-09-03T22:32:55.813Z,101377.63
2022-09-03T22:35:45.246Z,101383.00
2022-09-03T22:38:44.761Z,101367.09
2022-09-03T22:41:13.770Z,101360.28
2022-09-03T22:43:51.246Z,101373.16
2022-09-03T22:46:19.908Z,101379.31
2022-09-03T22:49:27.541Z,101374.53
2022-09-03T22:52:18.381Z,101379.78
2022-09-03T22:55:07.025Z,101379.44
2022-09-03T22:57:41.048Z,101373.56
2022-09-03T23:00:09.905Z,101382.66
2022-09-03T23:02:37.941Z,101371.88
2022-09-03T23:05:19.570Z,101385.78
2022-09-03T23:08:04.196Z,101389.06
2022-09-03T23:10:35.862Z,101395.72
2022-09-03T23:13:16.557Z,101397.25
2022-09-03T23:15:45.894Z,101401.56
2022-09-03T23:18:24.613Z,101411.19
2022-09-03T23:21:02.369Z,101396.06
2022-09-03T23:23:44.964Z,101394.50
2022-09-03T23:26:19.334Z,101416.25
2022-09-03T23:28:52.140Z,101408.94
2022-09-03T23:31:22.939Z,101418.81
2022-09-03T23:33:50.208Z,101420.41
2022-09-03T23:36:55.132Z,101416.97
2022-09-03T23:39:35.660Z,101420.41
2022-09-03T23:42:07.896Z,101409.41
2022-09-03T23:44:48.976Z,101406.56
2022-09-03T23:47:40.301Z,101402.56
2022-09-03T23:50:55.965Z,101416.81
2022-09-03T23:53:43.746Z,101410.16
2022-09-03T23:56:16.020Z,101421.91
2022-09-03T23:58:56.848Z,101425.72
